Time;durP1;ratioP1;P1;durP2;ratioP2;P2;SDS_P1;SDS_P2;PMS_P1;PMS_P2;Temp;Humidity;BMP_temperature;BMP_pressure;BME280_temperature;BME280_humidity;BME280_pressure;Samples;Min_cycle;Max_cycle;Signal;HPM_P1;HPM_P2
2022/08/14 04:05:57;;;;;;;4.93;4.40;;;15.10;99.90;;;;;;4953636;29;20474;-67
2022/08/14 04:08:23;;;;;;;4.33;4.00;;;15.10;99.90;;;;;;4955594;28;20416;-68
2022/08/14 04:10:48;;;;;;;3.93;3.63;;;15.00;99.90;;;;;;4955553;28;20180;-69
2022/08/14 04:13:18;;;;;;;4.20;3.70;;;15.00;99.90;;;;;;4952313;28;20177;-69
2022/08/14 04:15:45;;;;;;;4.50;3.93;;;15.00;99.90;;;;;;4935892;29;20178;-68
2022/08/14 04:18:11;;;;;;;4.00;3.70;;;15.00;99.90;;;;;;4936294;29;20408;-67
2022/08/14 04:20:39;;;;;;;4.83;4.40;;;15.00;99.90;;;;;;4936296;29;20496;-69
2022/08/14 04:23:05;;;;;;;4.47;4.17;;;15.00;99.90;;;;;;4935889;29;20547;-69
2022/08/14 04:25:34;;;;;;;3.90;3.60;;;15.10;99.90;;;;;;4935889;29;20424;-68
2022/08/14 04:28:00;;;;;;;4.77;4.37;;;15.00;99.90;;;;;;4936420;29;20408;-68
2022/08/14 04:30:27;;;;;;;3.30;3.10;;;15.00;99.90;;;;;;4936410;29;20414;-69
2022/08/14 04:32:54;;;;;;;4.30;4.00;;;15.00;99.90;;;;;;4935235;29;20200;-68
2022/08/14 04:35:20;;;;;;;3.87;3.63;;;15.00;99.90;;;;;;4935588;29;20462;-69
2022/08/14 04:45:58;;;;;;;4.40;3.80;;;15.60;99.90;;;;;;4936303;29;20440;-68
2022/08/14 04:48:27;;;;;;;4.20;3.90;;;15.80;99.90;;;;;;4936050;29;20421;-70
2022/08/14 04:50:54;;;;;;;4.33;3.97;;;15.90;99.90;;;;;;4950226;29;20195;-68
2022/08/14 04:53:22;;;;;;;5.17;4.77;;;16.00;99.90;;;;;;4935508;29;20433;-70
2022/08/14 04:55:49;;;;;;;5.80;4.00;;;16.10;99.90;;;;;;4950731;29;20413;-69
2022/08/14 04:58:16;;;;;;;3.87;3.60;;;16.20;99.90;;;;;;4935722;29;20831;-70
2022/08/14 05:00:49;;;;;;;4.20;3.90;;;16.30;99.90;;;;;;4935562;29;20425;-68
2022/08/14 05:03:27;;;;;;;4.07;3.80;;;16.50;99.90;;;;;;4935636;29;20409;-70
2022/08/14 05:05:57;;;;;;;3.90;3.70;;;16.80;99.90;;;;;;4935908;29;20433;-70
2022/08/14 05:08:24;;;;;;;4.60;4.30;;;17.00;99.90;;;;;;4936181;29;20480;-70
2022/08/14 05:10:53;;;;;;;4.27;3.97;;;17.30;99.70;;;;;;4936010;29;20412;-70
2022/08/14 05:13:22;;;;;;;3.70;3.50;;;17.50;98.50;;;;;;4935185;29;20443;-70
2022/08/14 05:15:51;;;;;;;4.30;3.90;;;17.70;97.80;;;;;;4935927;29;20445;-68
2022/08/14 05:18:19;;;;;;;5.30;4.27;;;17.80;96.90;;;;;;4935731;29;20972;-67
2022/08/14 05:20:48;;;;;;;3.90;3.60;;;17.90;96.50;;;;;;4935805;29;20407;-68
2022/08/14 05:23:17;;;;;;;5.20;4.40;;;18.00;96.30;;;;;;4935289;29;20413;-68
2022/08/14 05:25:44;;;;;;;4.33;4.03;;;18.00;95.80;;;;;;4935843;29;20486;-68
2022/08/14 05:28:18;;;;;;;4.07;3.80;;;18.00;95.80;;;;;;4935378;29;20913;-71
2022/08/14 05:30:52;;;;;;;5.00;4.60;;;18.10;95.90;;;;;;4935804;29;20763;-69
2022/08/14 05:33:19;;;;;;;4.90;3.90;;;18.20;95.80;;;;;;4927671;29;20496;-69
2022/08/14 05:35:47;;;;;;;4.17;3.87;;;18.30;95.70;;;;;;4921092;29;20423;-69
2022/08/14 05:38:19;;;;;;;5.40;4.90;;;18.40;95.50;;;;;;4932540;29;20465;-69
2022/08/14 05:40:46;;;;;;;4.63;3.90;;;18.60;95.20;;;;;;4920041;29;20838;-69
2022/08/14 05:43:13;;;;;;;4.07;3.77;;;18.70;94.90;;;;;;4936229;29;20425;-70
2022/08/14 05:45:41;;;;;;;3.77;3.47;;;18.80;94.60;;;;;;4938878;29;20409;-70
2022/08/14 05:48:11;;;;;;;4.47;4.03;;;18.90;94.20;;;;;;4939165;29;20473;-68
2022/08/14 05:50:37;;;;;;;4.13;3.93;;;19.00;94.00;;;;;;4939151;29;20444;-70
2022/08/14 05:53:03;;;;;;;3.90;3.70;;;19.20;93.70;;;;;;4938415;29;20461;-69
2022/08/14 05:55:29;;;;;;;3.73;3.53;;;19.30;93.40;;;;;;4939040;29;20409;-71
2022/08/14 05:58:01;;;;;;;4.33;3.40;;;19.50;92.80;;;;;;4938537;29;20181;-69
2022/08/14 06:00:35;;;;;;;4.17;3.80;;;19.60;92.00;;;;;;4938901;29;20404;-69
2022/08/14 06:03:02;;;;;;;4.33;3.63;;;19.70;91.80;;;;;;4938271;29;20441;-69
2022/08/14 06:05:29;;;;;;;3.63;3.33;;;19.80;91.00;;;;;;4938693;29;20494;-71
2022/08/14 06:07:56;;;;;;;8.73;4.03;;;19.90;90.70;;;;;;4938767;29;20919;-69
2022/08/14 06:10:22;;;;;;;3.70;3.50;;;20.10;90.40;;;;;;4938344;29;20420;-72
2022/08/14 06:12:47;;;;;;;4.00;3.80;;;20.10;90.10;;;;;;4937925;29;20475;-68
2022/08/14 06:15:13;;;;;;;4.23;3.83;;;20.00;90.30;;;;;;4938676;29;20202;-71
2022/08/14 06:17:52;;;;;;;3.73;3.43;;;20.00;90.60;;;;;;4938588;29;20702;-69
2022/08/14 06:20:19;;;;;;;4.70;4.30;;;20.00;90.90;;;;;;4938259;29;20253;-69
2022/08/14 06:22:46;;;;;;;4.53;4.13;;;19.80;91.40;;;;;;4937962;29;20794;-69
2022/08/14 06:25:13;;;;;;;4.40;4.10;;;19.70;91.30;;;;;;4931215;29;20437;-70
2022/08/14 06:27:44;;;;;;;4.00;3.60;;;19.70;91.50;;;;;;4926664;29;20437;-69
2022/08/14 06:30:15;;;;;;;4.43;4.10;;;19.70;91.10;;;;;;4926782;29;20417;-70
2022/08/14 06:32:44;;;;;;;5.13;3.97;;;19.70;90.90;;;;;;4929148;29;20468;-69
2022/08/14 06:35:13;;;;;;;5.03;4.60;;;19.70;91.20;;;;;;4930196;29;20438;-70
2022/08/14 06:37:51;;;;;;;3.80;3.37;;;19.70;91.50;;;;;;4938596;29;20441;-68
2022/08/14 06:40:29;;;;;;;4.53;4.00;;;19.80;91.60;;;;;;4933202;29;20768;-70
2022/08/14 06:42:57;;;;;;;4.50;4.13;;;19.90;91.20;;;;;;4932046;29;20512;-68
2022/08/14 06:45:23;;;;;;;4.83;4.50;;;20.20;90.40;;;;;;4924342;29;20438;-71
2022/08/14 06:47:49;;;;;;;5.47;4.90;;;20.40;90.20;;;;;;4937599;29;20825;-68
2022/08/14 06:50:21;;;;;;;4.17;3.90;;;20.50;89.10;;;;;;4934215;29;20422;-68
2022/08/14 06:52:47;;;;;;;4.00;3.67;;;20.60;89.40;;;;;;4928446;29;20503;-68
2022/08/14 06:55:17;;;;;;;4.47;4.17;;;20.60;89.50;;;;;;4937453;29;20438;-71
2022/08/14 06:57:47;;;;;;;4.07;3.67;;;20.70;88.20;;;;;;4919492;29;20426;-68
2022/08/14 07:00:16;;;;;;;3.10;2.90;;;20.70;88.20;;;;;;4925983;29;20453;-70
2022/08/14 07:05:45;;;;;;;4.10;3.70;;;20.90;86.60;;;;;;4926270;29;20516;-72
2022/08/14 07:08:14;;;;;;;4.17;3.60;;;21.10;86.60;;;;;;4927564;29;20428;-70
2022/08/14 07:10:42;;;;;;;3.33;3.13;;;21.20;85.70;;;;;;4926117;29;20474;-69
2022/08/14 07:13:12;;;;;;;3.30;3.10;;;21.40;83.60;;;;;;4925585;29;20464;-69
2022/08/14 07:15:39;;;;;;;3.43;3.23;;;21.50;82.80;;;;;;4925460;29;20426;-70
2022/08/14 07:18:05;;;;;;;5.03;4.70;;;21.60;82.30;;;;;;4924157;29;20413;-70
2022/08/14 07:20:32;;;;;;;3.30;3.10;;;21.70;81.60;;;;;;4918355;29;20458;-73
2022/08/14 07:23:02;;;;;;;3.50;3.23;;;21.80;81.70;;;;;;4917715;29;20410;-68
2022/08/14 07:25:28;;;;;;;3.30;3.00;;;22.00;80.40;;;;;;4920943;29;20434;-73
2022/08/14 07:27:54;;;;;;;3.63;3.40;;;22.20;79.70;;;;;;4937579;29;20667;-69
2022/08/14 07:30:20;;;;;;;4.77;3.07;;;22.30;79.80;;;;;;4937046;29;20178;-72
2022/08/14 07:32:45;;;;;;;2.90;2.70;;;22.40;79.10;;;;;;4936536;29;20511;-70
2022/08/14 07:35:11;;;;;;;3.73;3.43;;;22.70;78.70;;;;;;4935207;29;20440;-71
2022/08/14 07:37:37;;;;;;;2.90;2.80;;;23.10;78.80;;;;;;4936887;29;20217;-70
2022/08/14 07:40:04;;;;;;;3.80;3.50;;;23.70;78.30;;;;;;4936588;29;20181;-72
2022/08/14 07:42:31;;;;;;;3.63;3.33;;;24.50;75.10;;;;;;4936547;29;20281;-69
2022/08/14 07:44:58;;;;;;;3.03;2.83;;;25.40;72.80;;;;;;4936700;29;20439;-71
2022/08/14 07:47:24;;;;;;;2.93;2.73;;;26.50;70.10;;;;;;4917929;29;20765;-73
2022/08/14 07:50:00;;;;;;;3.67;3.47;;;27.70;64.80;;;;;;4917892;29;20907;-68
2022/08/14 07:52:28;;;;;;;3.97;3.67;;;29.20;60.50;;;;;;4917219;29;20828;-70
2022/08/14 07:54:54;;;;;;;3.93;3.73;;;30.60;57.80;;;;;;4920106;29;20508;-72
2022/08/14 07:57:20;;;;;;;3.50;3.30;;;32.00;55.10;;;;;;4936872;29;20418;-76
2022/08/14 07:59:47;;;;;;;3.80;3.60;;;32.80;52.70;;;;;;4936527;29;20480;-75
2022/08/14 08:02:15;;;;;;;3.63;3.33;;;33.40;52.40;;;;;;4929710;29;20174;-64
2022/08/14 08:04:44;;;;;;;3.60;3.40;;;34.30;49.90;;;;;;4917871;29;20416;-65
2022/08/14 08:07:10;;;;;;;3.47;3.27;;;34.90;49.10;;;;;;4921006;29;20491;-65
2022/08/14 08:09:40;;;;;;;3.20;3.00;;;35.50;47.80;;;;;;4936154;29;20839;-66
2022/08/14 08:12:06;;;;;;;3.80;3.50;;;36.20;47.40;;;;;;4925550;29;20444;-65
2022/08/14 08:14:33;;;;;;;3.90;3.70;;;37.20;45.10;;;;;;4936129;29;20505;-66
2022/08/14 08:17:00;;;;;;;3.50;3.30;;;37.30;44.10;;;;;;4934875;29;20519;-65
2022/08/14 08:19:26;;;;;;;3.70;3.50;;;37.60;44.10;;;;;;4935849;29;20408;-65
2022/08/14 08:21:52;;;;;;;3.43;3.23;;;38.00;43.30;;;;;;4936013;29;20417;-66
2022/08/14 08:24:18;;;;;;;3.40;3.20;;;38.50;43.00;;;;;;4918180;29;20239;-67
2022/08/14 08:26:43;;;;;;;3.60;3.40;;;38.90;42.00;;;;;;4925839;29;20472;-66
2022/08/14 08:29:09;;;;;;;3.97;3.67;;;39.10;41.40;;;;;;4916109;29;20182;-63
2022/08/14 08:31:51;;;;;;;3.80;3.60;;;39.20;41.00;;;;;;4917041;29;20213;-65
2022/08/14 08:34:18;;;;;;;3.40;3.20;;;39.10;41.10;;;;;;4915137;29;20190;-65
2022/08/14 08:36:44;;;;;;;2.70;2.60;;;39.30;40.60;;;;;;4926219;29;20425;-65
2022/08/14 08:39:11;;;;;;;3.50;3.20;;;39.50;39.10;;;;;;4934094;29;20422;-65
2022/08/14 08:41:42;;;;;;;3.80;3.60;;;39.50;39.20;;;;;;4935920;29;20520;-65
2022/08/14 08:44:07;;;;;;;3.40;3.20;;;39.70;38.90;;;;;;4935803;29;20799;-65
2022/08/14 08:46:33;;;;;;;3.70;3.50;;;39.80;38.60;;;;;;4936090;29;20496;-65
2022/08/14 08:48:59;;;;;;;2.70;2.60;;;39.70;38.50;;;;;;4936002;29;20731;-65
2022/08/14 08:51:34;;;;;;;3.07;2.97;;;39.40;38.50;;;;;;4935918;29;20209;-65
2022/08/14 08:54:14;;;;;;;3.70;3.50;;;39.10;38.30;;;;;;4935522;29;20272;-64
2022/08/14 08:56:45;;;;;;;2.90;2.70;;;38.60;39.40;;;;;;4936251;29;20427;-64
2022/08/14 08:59:22;;;;;;;3.47;3.27;;;38.50;39.40;;;;;;4935859;29;20861;-66
2022/08/14 09:01:57;;;;;;;3.57;3.37;;;38.90;38.60;;;;;;4936235;29;20428;-65
2022/08/14 09:04:29;;;;;;;3.80;3.60;;;39.10;38.50;;;;;;4935522;29;20444;-65
2022/08/14 09:06:55;;;;;;;3.30;3.10;;;39.20;38.30;;;;;;4935785;29;20433;-64
2022/08/14 09:09:26;;;;;;;3.10;3.00;;;39.10;38.50;;;;;;4936132;29;20455;-64
2022/08/14 09:11:54;;;;;;;3.53;3.33;;;39.10;38.60;;;;;;4935706;29;20221;-64
2022/08/14 09:14:26;;;;;;;3.67;3.47;;;39.20;38.70;;;;;;4938534;29;20441;-66
2022/08/14 09:16:52;;;;;;;3.73;3.53;;;39.20;38.40;;;;;;4939179;29;20433;-64
2022/08/14 09:19:19;;;;;;;3.70;3.50;;;39.20;38.50;;;;;;4939599;29;20413;-65
2022/08/14 09:21:46;;;;;;;3.50;3.30;;;39.40;38.30;;;;;;4939612;29;20484;-64
2022/08/14 09:24:12;;;;;;;3.70;3.50;;;39.50;38.50;;;;;;4938863;29;20464;-66
2022/08/14 09:26:40;;;;;;;3.70;3.50;;;39.60;38.10;;;;;;4939494;29;20475;-64
2022/08/14 09:29:07;;;;;;;3.80;3.60;;;39.20;38.10;;;;;;4939488;29;20429;-66
2022/08/14 09:31:36;;;;;;;3.70;3.50;;;39.30;37.60;;;;;;4938572;29;20551;-64
2022/08/14 09:34:16;;;;;;;3.30;3.10;;;38.80;38.00;;;;;;4938621;29;20453;-64
2022/08/14 09:37:19;;;;;;;3.73;3.53;;;38.30;38.60;;;;;;4939884;29;20476;-64
2022/08/14 09:40:01;;;;;;;3.73;3.53;;;38.20;38.80;;;;;;4939678;29;20425;-63
2022/08/14 09:43:02;;;;;;;3.07;2.97;;;38.50;37.90;;;;;;4939080;29;20745;-63
2022/08/14 09:45:41;;;;;;;3.90;3.70;;;38.90;37.90;;;;;;4938710;29;20421;-66
2022/08/14 09:48:16;;;;;;;3.90;3.70;;;38.90;37.40;;;;;;4939207;29;20516;-63
2022/08/14 09:50:53;;;;;;;4.10;3.80;;;39.00;36.90;;;;;;4938990;29;20961;-66
2022/08/14 09:53:42;;;;;;;3.70;3.50;;;38.90;37.00;;;;;;4938023;29;20433;-67
2022/08/14 09:56:11;;;;;;;3.30;3.10;;;38.30;37.40;;;;;;4937643;29;20995;-66
2022/08/14 09:58:40;;;;;;;3.27;3.07;;;38.10;38.10;;;;;;4937661;29;20836;-66
2022/08/14 10:01:11;;;;;;;3.33;3.13;;;38.00;37.90;;;;;;4937594;29;20753;-67
2022/08/14 10:03:47;;;;;;;3.57;3.37;;;38.20;37.80;;;;;;4938315;29;20787;-64
2022/08/14 10:06:23;;;;;;;3.90;3.70;;;38.60;37.70;;;;;;4938277;29;20896;-65
2022/08/14 10:08:51;;;;;;;3.80;3.60;;;39.10;36.60;;;;;;4938800;29;20764;-66
2022/08/14 10:11:22;;;;;;;3.70;3.50;;;39.30;36.20;;;;;;4938635;29;20539;-65
2022/08/14 10:13:53;;;;;;;3.83;3.63;;;39.20;36.90;;;;;;4938206;29;20903;-65
2022/08/14 10:16:27;;;;;;;3.87;3.67;;;39.20;36.70;;;;;;4938762;29;20879;-64
2022/08/14 10:19:08;;;;;;;3.50;3.30;;;39.20;36.80;;;;;;4939092;29;20417;-65
2022/08/14 10:21:37;;;;;;;3.87;3.67;;;39.30;36.30;;;;;;4938041;29;20429;-65
2022/08/14 10:24:04;;;;;;;3.67;3.47;;;39.30;36.20;;;;;;4937736;29;20804;-65
2022/08/14 10:26:30;;;;;;;3.80;3.60;;;39.10;36.30;;;;;;4938429;29;20934;-64
2022/08/14 10:29:05;;;;;;;3.67;3.47;;;38.90;36.50;;;;;;4938120;29;20426;-65
2022/08/14 10:31:32;;;;;;;3.93;3.73;;;38.90;36.40;;;;;;4937039;29;20598;-64
2022/08/14 10:34:08;;;;;;;4.07;3.87;;;38.90;36.50;;;;;;4937744;29;20439;-64
2022/08/14 10:36:40;;;;;;;4.07;3.77;;;38.70;35.90;;;;;;4938460;29;20387;-64
2022/08/14 10:39:14;;;;;;;3.83;3.63;;;38.30;36.60;;;;;;4938350;29;20413;-64
2022/08/14 10:41:42;;;;;;;3.40;3.20;;;38.10;36.60;;;;;;4938079;29;20465;-64
2022/08/14 10:44:15;;;;;;;5.80;3.50;;;37.80;36.90;;;;;;4937836;29;20441;-64
2022/08/14 10:46:42;;;;;;;4.33;4.03;;;37.40;37.20;;;;;;4937036;29;20488;-64
2022/08/14 10:49:22;;;;;;;3.43;3.23;;;36.80;38.10;;;;;;4937653;29;20404;-64
2022/08/14 10:52:07;;;;;;;4.13;3.90;;;36.40;38.10;;;;;;4937842;29;20492;-64
2022/08/14 10:54:43;;;;;;;3.73;3.50;;;36.20;38.40;;;;;;4936240;29;20498;-64
2022/08/14 10:57:23;;;;;;;4.00;3.70;;;35.90;38.40;;;;;;4938015;29;20443;-63
2022/08/14 10:59:58;;;;;;;3.83;3.53;;;35.80;38.60;;;;;;4938064;29;20416;-64
2022/08/14 11:02:30;;;;;;;3.63;3.43;;;35.70;39.00;;;;;;4937125;29;20516;-64
2022/08/14 11:04:59;;;;;;;3.77;3.57;;;35.60;39.30;;;;;;4937671;29;20430;-64
2022/08/14 11:07:25;;;;;;;4.20;3.90;;;35.30;39.40;;;;;;4937862;29;20534;-64
2022/08/14 11:09:59;;;;;;;4.30;3.90;;;35.10;40.00;;;;;;4937613;29;20380;-63
2022/08/14 11:12:37;;;;;;;3.73;3.50;;;34.80;40.20;;;;;;4937287;29;20431;-65
2022/08/14 11:15:03;;;;;;;4.00;3.80;;;34.70;40.40;;;;;;4937114;29;20445;-66
2022/08/14 11:17:35;;;;;;;3.60;3.40;;;34.20;40.50;;;;;;4937436;29;20384;-67
2022/08/14 11:20:03;;;;;;;3.40;3.20;;;33.50;41.10;;;;;;4937415;29;20406;-65
2022/08/14 11:22:30;;;;;;;3.70;3.43;;;32.90;42.40;;;;;;4937156;29;20400;-65
2022/08/14 11:25:05;;;;;;;3.70;3.40;;;32.50;42.60;;;;;;4935983;29;20945;-65
2022/08/14 11:27:32;;;;;;;4.07;3.77;;;32.10;42.70;;;;;;4937240;29;20837;-65
2022/08/14 11:30:05;;;;;;;3.30;3.10;;;31.70;43.10;;;;;;4936638;29;20456;-65
2022/08/14 11:32:31;;;;;;;3.23;3.03;;;31.50;43.70;;;;;;4936272;28;20432;-67
2022/08/14 11:34:59;;;;;;;3.73;3.53;;;31.30;43.80;;;;;;4936615;29;20838;-65
2022/08/14 11:37:25;;;;;;;4.00;3.70;;;31.20;44.00;;;;;;4936824;29;20414;-65
2022/08/14 11:39:50;;;;;;;4.00;3.70;;;31.10;44.10;;;;;;4937585;29;20420;-65
2022/08/14 11:42:25;;;;;;;3.70;3.50;;;30.90;44.10;;;;;;4936814;29;20509;-65
2022/08/14 11:44:52;;;;;;;3.40;3.20;;;30.90;44.30;;;;;;4935324;29;20196;-64
2022/08/14 11:47:18;;;;;;;3.67;3.47;;;30.90;44.80;;;;;;4936965;29;20400;-65
2022/08/14 11:49:48;;;;;;;4.23;3.83;;;30.80;44.30;;;;;;4937083;29;20429;-66
2022/08/14 11:52:15;;;;;;;3.80;3.50;;;30.70;45.00;;;;;;4936702;29;20867;-65
2022/08/14 11:54:41;;;;;;;3.90;3.60;;;30.70;45.30;;;;;;4936711;29;20788;-66
2022/08/14 11:57:14;;;;;;;3.40;3.20;;;30.70;45.70;;;;;;4936996;29;20396;-64
2022/08/14 11:59:41;;;;;;;3.60;3.30;;;30.80;44.50;;;;;;4936494;29;20954;-64
2022/08/14 12:02:14;;;;;;;3.40;3.20;;;30.80;44.00;;;;;;4937047;29;20414;-65
2022/08/14 12:04:58;;;;;;;3.23;3.03;;;30.80;44.20;;;;;;4936348;29;20444;-65
2022/08/14 12:07:24;;;;;;;3.60;3.10;;;30.80;44.20;;;;;;4936835;29;20476;-66
2022/08/14 12:09:54;;;;;;;3.93;3.63;;;30.80;44.20;;;;;;4936749;29;20433;-64
2022/08/14 12:12:22;;;;;;;3.40;3.20;;;30.70;44.20;;;;;;4936254;29;20233;-65
2022/08/14 12:14:55;;;;;;;3.20;3.00;;;30.60;44.70;;;;;;4936302;29;20514;-64
2022/08/14 12:17:25;;;;;;;3.43;3.23;;;30.60;45.20;;;;;;4936662;29;20417;-64
2022/08/14 12:19:53;;;;;;;3.20;3.00;;;30.60;44.50;;;;;;4935202;29;20440;-66
2022/08/14 12:22:35;;;;;;;3.10;2.90;;;30.70;43.40;;;;;;4935700;29;20437;-65
2022/08/14 12:25:05;;;;;;;3.27;3.00;;;30.60;43.10;;;;;;4936342;29;20433;-65
2022/08/14 12:27:43;;;;;;;3.73;3.43;;;30.60;43.50;;;;;;4936439;29;20417;-66
2022/08/14 12:30:12;;;;;;;6.20;3.00;;;30.70;43.70;;;;;;4936323;29;20966;-64
2022/08/14 12:32:43;;;;;;;3.13;2.93;;;30.70;42.20;;;;;;4936036;29;20461;-65
2022/08/14 12:35:09;;;;;;;3.07;2.87;;;30.70;42.00;;;;;;4936057;29;20629;-64
2022/08/14 12:37:36;;;;;;;3.60;3.20;;;30.70;42.80;;;;;;4936395;29;20556;-65
2022/08/14 12:40:11;;;;;;;3.20;3.00;;;30.70;43.20;;;;;;4936362;29;20425;-65
2022/08/14 12:42:37;;;;;;;2.87;2.67;;;30.70;42.60;;;;;;4934752;29;20425;-65
2022/08/14 12:45:03;;;;;;;3.07;2.87;;;30.70;42.50;;;;;;4936307;29;20455;-64
2022/08/14 12:47:30;;;;;;;2.60;2.50;;;30.80;42.80;;;;;;4938369;29;20459;-66
2022/08/14 12:49:56;;;;;;;3.50;3.30;;;30.70;43.10;;;;;;4939935;29;20396;-65
2022/08/14 12:52:31;;;;;;;3.10;2.90;;;30.70;43.30;;;;;;4939854;29;20464;-64
2022/08/14 12:55:03;;;;;;;3.23;3.03;;;30.70;43.30;;;;;;4940127;29;20429;-65
2022/08/14 12:57:35;;;;;;;3.00;2.80;;;30.80;43.30;;;;;;4940084;29;20392;-65
2022/08/14 13:00:16;;;;;;;3.10;2.90;;;30.80;43.10;;;;;;4940142;29;20413;-64
2022/08/14 13:02:42;;;;;;;3.43;3.20;;;30.80;42.80;;;;;;4939724;29;20874;-65
2022/08/14 13:05:11;;;;;;;2.90;2.67;;;30.90;42.50;;;;;;4939529;29;20448;-65
2022/08/14 13:07:41;;;;;;;2.80;2.60;;;30.80;42.10;;;;;;4940035;29;20399;-65
2022/08/14 13:10:14;;;;;;;2.80;2.60;;;30.70;41.80;;;;;;4938756;29;20788;-64
2022/08/14 13:12:41;;;;;;;2.47;2.37;;;30.70;42.20;;;;;;4939336;29;20447;-65
2022/08/14 13:15:10;;;;;;;2.67;2.57;;;30.80;41.40;;;;;;4939725;29;20940;-64
2022/08/14 13:17:45;;;;;;;3.47;3.27;;;30.80;41.80;;;;;;4939770;29;20523;-65
2022/08/14 13:20:14;;;;;;;3.20;3.00;;;30.80;42.00;;;;;;4939527;29;20443;-66
2022/08/14 13:22:42;;;;;;;3.10;2.90;;;30.80;41.60;;;;;;4939362;29;20395;-65
2022/08/14 13:25:11;;;;;;;2.93;2.73;;;30.80;41.50;;;;;;4939467;29;20958;-64
2022/08/14 13:27:37;;;;;;;3.00;2.80;;;30.80;42.10;;;;;;4939627;29;20486;-65
2022/08/14 13:30:09;;;;;;;3.30;3.10;;;30.80;42.40;;;;;;4939548;29;20958;-64
2022/08/14 13:32:39;;;;;;;3.00;2.80;;;30.80;42.30;;;;;;4939203;29;20216;-64
2022/08/14 13:35:06;;;;;;;3.50;3.20;;;30.70;42.60;;;;;;4939221;29;20512;-64
2022/08/14 13:37:32;;;;;;;3.10;2.90;;;30.80;42.70;;;;;;4938822;29;20472;-65
2022/08/14 13:39:57;;;;;;;3.50;3.30;;;30.80;42.00;;;;;;4938809;29;20516;-65
2022/08/14 13:42:26;;;;;;;4.47;3.00;;;30.90;42.00;;;;;;4939011;29;20995;-65
2022/08/14 13:44:53;;;;;;;3.03;2.60;;;30.90;41.80;;;;;;4939042;29;20208;-63
2022/08/14 13:47:28;;;;;;;2.80;2.60;;;30.90;41.60;;;;;;4939099;29;20903;-64
2022/08/14 13:50:01;;;;;;;3.80;3.50;;;31.00;41.90;;;;;;4939220;29;20897;-64
2022/08/14 13:52:33;;;;;;;3.10;2.90;;;31.00;41.40;;;;;;4938478;29;20820;-65
2022/08/14 13:55:03;;;;;;;2.90;2.70;;;30.90;41.90;;;;;;4938875;29;20467;-64
2022/08/14 13:57:32;;;;;;;3.27;3.07;;;30.90;41.20;;;;;;4939159;29;20424;-63
2022/08/14 14:00:00;;;;;;;3.50;3.30;;;30.90;41.30;;;;;;4938192;29;20409;-64
2022/08/14 14:02:28;;;;;;;2.97;2.77;;;30.90;42.00;;;;;;4938596;29;20405;-65
2022/08/14 14:04:59;;;;;;;2.80;2.60;;;30.90;42.00;;;;;;4938820;29;20491;-64
2022/08/14 14:07:27;;;;;;;2.97;2.87;;;30.80;41.90;;;;;;4938444;29;20437;-64
2022/08/14 14:09:56;;;;;;;2.90;2.70;;;30.90;41.90;;;;;;4938953;29;20451;-65
2022/08/14 14:12:23;;;;;;;3.10;2.90;;;30.90;40.70;;;;;;4938413;29;20557;-65
2022/08/14 14:14:49;;;;;;;3.43;3.13;;;31.00;41.20;;;;;;4938644;29;20407;-64
2022/08/14 14:17:16;;;;;;;2.90;2.70;;;31.00;41.30;;;;;;4938709;29;20892;-64
2022/08/14 14:19:45;;;;;;;2.57;2.37;;;31.10;41.30;;;;;;4938788;29;20496;-64
2022/08/14 14:22:14;;;;;;;2.40;2.30;;;31.10;40.90;;;;;;4938002;29;20932;-64
2022/08/14 14:24:41;;;;;;;3.03;2.83;;;31.10;41.10;;;;;;4938512;29;20452;-64
2022/08/14 14:27:07;;;;;;;2.90;2.70;;;31.10;41.00;;;;;;4938625;29;20414;-65
2022/08/14 14:29:35;;;;;;;2.70;2.60;;;31.20;41.10;;;;;;4938628;29;20512;-64
2022/08/14 14:32:02;;;;;;;2.60;2.50;;;31.20;40.50;;;;;;4938472;29;20555;-67
2022/08/14 14:34:32;;;;;;;2.97;2.77;;;31.20;40.70;;;;;;4938871;29;20433;-66
2022/08/14 14:37:03;;;;;;;2.30;2.20;;;31.20;40.70;;;;;;4937839;29;20408;-65
2022/08/14 14:39:30;;;;;;;2.60;2.40;;;31.20;40.50;;;;;;4938222;29;20384;-66
2022/08/14 14:41:58;;;;;;;4.00;3.10;;;31.20;40.40;;;;;;4938089;29;20926;-65
2022/08/14 14:44:28;;;;;;;4.30;2.63;;;31.20;40.30;;;;;;4937681;29;20511;-65
2022/08/14 14:46:57;;;;;;;2.83;2.73;;;31.20;40.30;;;;;;4936961;29;20824;-64
2022/08/14 14:49:24;;;;;;;2.70;2.50;;;31.20;40.40;;;;;;4938085;29;20429;-65
2022/08/14 14:51:50;;;;;;;2.67;2.57;;;31.10;40.30;;;;;;4937237;29;20469;-64
2022/08/14 14:54:17;;;;;;;2.90;2.67;;;31.10;40.50;;;;;;4937587;29;20423;-65
2022/08/14 14:56:45;;;;;;;3.03;2.77;;;31.10;40.60;;;;;;4937897;29;20187;-63
2022/08/14 14:59:12;;;;;;;2.80;2.63;;;31.10;40.40;;;;;;4937909;29;20434;-65
2022/08/14 15:01:39;;;;;;;2.40;2.30;;;31.10;40.70;;;;;;4937690;29;20429;-64
2022/08/14 15:04:06;;;;;;;2.20;2.10;;;31.20;40.30;;;;;;4937211;29;20442;-63
2022/08/14 15:06:33;;;;;;;2.60;2.40;;;31.20;40.30;;;;;;4937286;29;20423;-65
2022/08/14 15:08:59;;;;;;;2.70;2.50;;;31.10;39.60;;;;;;4937499;29;20532;-65
2022/08/14 15:11:26;;;;;;;2.50;2.40;;;31.10;39.80;;;;;;4937782;29;20880;-64
2022/08/14 15:13:51;;;;;;;2.80;2.60;;;31.00;39.60;;;;;;4937152;29;20469;-64
2022/08/14 15:16:17;;;;;;;2.40;2.30;;;31.00;39.90;;;;;;4937583;29;20763;-65
2022/08/14 15:18:44;;;;;;;2.43;2.33;;;30.90;39.50;;;;;;4937370;29;20189;-65
2022/08/14 15:21:12;;;;;;;2.27;2.17;;;30.90;39.80;;;;;;4937450;29;20842;-65
2022/08/14 15:23:38;;;;;;;3.00;2.80;;;30.90;39.40;;;;;;4937168;29;20415;-64
2022/08/14 15:26:04;;;;;;;2.20;2.10;;;30.80;39.10;;;;;;4937504;29;20421;-64
2022/08/14 15:28:35;;;;;;;2.77;2.67;;;30.80;38.80;;;;;;4937504;29;20913;-65
2022/08/14 15:31:02;;;;;;;2.70;2.60;;;30.80;39.40;;;;;;4937298;29;20507;-66
2022/08/14 15:36:13;;;;;;;2.57;2.37;;;30.70;40.10;;;;;;4937092;29;20408;-63
2022/08/14 15:38:39;;;;;;;2.70;2.60;;;30.70;39.90;;;;;;4937231;29;20422;-63
2022/08/14 15:41:05;;;;;;;3.30;3.10;;;30.60;39.60;;;;;;4937313;29;20170;-66
2022/08/14 15:43:32;;;;;;;2.70;2.50;;;30.60;39.90;;;;;;4936565;29;20198;-65
2022/08/14 15:46:07;;;;;;;2.50;2.33;;;30.60;39.90;;;;;;4936982;29;20655;-66
2022/08/14 15:48:34;;;;;;;3.17;2.90;;;30.60;39.60;;;;;;4935756;29;20437;-65
2022/08/14 15:51:00;;;;;;;2.80;2.60;;;30.50;40.00;;;;;;4936808;29;20476;-66
2022/08/14 15:53:26;;;;;;;2.53;2.43;;;30.50;40.20;;;;;;4936424;29;20457;-65
2022/08/14 15:55:54;;;;;;;2.30;2.20;;;30.60;39.80;;;;;;4936903;29;20396;-66
2022/08/14 15:58:21;;;;;;;2.60;2.50;;;30.60;39.60;;;;;;4936945;29;20428;-66
2022/08/14 16:03:32;;;;;;;3.83;3.53;;;30.80;40.10;;;;;;4936625;29;20864;-65
2022/08/14 16:05:57;;;;;;;2.77;2.57;;;30.80;39.90;;;;;;4936198;29;20520;-65
2022/08/14 16:08:23;;;;;;;2.43;2.33;;;30.90;40.00;;;;;;4936742;29;20173;-66
2022/08/14 16:10:49;;;;;;;2.17;2.07;;;30.90;40.00;;;;;;4936775;29;20261;-65
2022/08/14 16:13:15;;;;;;;2.80;2.70;;;31.00;40.60;;;;;;4936024;29;20651;-65
2022/08/14 16:15:41;;;;;;;2.53;2.43;;;31.00;40.10;;;;;;4936595;29;20170;-64
2022/08/14 16:18:12;;;;;;;3.30;3.00;;;31.00;40.00;;;;;;4936532;29;20480;-63
2022/08/14 16:20:43;;;;;;;2.93;2.73;;;31.00;40.30;;;;;;4936300;29;20425;-64
2022/08/14 16:23:10;;;;;;;3.60;3.40;;;31.00;40.70;;;;;;4935328;29;20421;-63
2022/08/14 16:25:39;;;;;;;4.63;2.40;;;30.90;41.40;;;;;;4936021;29;20415;-64
2022/08/14 16:28:05;;;;;;;3.30;3.10;;;30.90;40.40;;;;;;4933521;29;20419;-63
2022/08/14 16:30:31;;;;;;;3.43;3.23;;;30.90;40.10;;;;;;4936439;29;20396;-64
2022/08/14 16:32:58;;;;;;;3.03;2.80;;;30.80;40.40;;;;;;4935943;29;20465;-64
2022/08/14 16:35:31;;;;;;;3.07;2.87;;;30.80;40.50;;;;;;4936901;29;20429;-64
2022/08/14 16:37:59;;;;;;;2.73;2.53;;;30.80;40.10;;;;;;4934943;29;20393;-65
2022/08/14 16:40:26;;;;;;;2.90;2.63;;;30.70;40.10;;;;;;4936298;29;20768;-65
2022/08/14 16:42:52;;;;;;;2.90;2.73;;;30.70;40.20;;;;;;4935767;29;20454;-66
2022/08/14 16:45:23;;;;;;;2.87;2.67;;;30.60;39.80;;;;;;4935967;29;20423;-65
2022/08/14 16:47:49;;;;;;;2.97;2.77;;;30.60;40.00;;;;;;4936146;29;20403;-65
2022/08/14 16:50:15;;;;;;;2.80;2.60;;;30.70;40.30;;;;;;4935911;29;20414;-65
2022/08/14 16:52:42;;;;;;;2.57;2.47;;;30.60;39.90;;;;;;4935893;29;20541;-65
2022/08/14 16:55:10;;;;;;;2.77;2.57;;;30.60;39.50;;;;;;4934864;29;20429;-65
2022/08/14 16:57:50;;;;;;;2.80;2.60;;;30.60;39.80;;;;;;4935808;29;20948;-65
2022/08/14 17:00:35;;;;;;;2.97;2.87;;;30.60;40.00;;;;;;4936249;29;20388;-66
2022/08/14 17:03:08;;;;;;;2.70;2.60;;;30.50;39.60;;;;;;4935969;29;20960;-65
2022/08/14 17:05:40;;;;;;;3.10;2.90;;;30.50;39.50;;;;;;4935837;29;20444;-65
2022/08/14 17:08:08;;;;;;;2.90;2.70;;;30.50;39.50;;;;;;4936061;29;20407;-65
2022/08/14 17:10:44;;;;;;;2.90;2.70;;;30.40;39.60;;;;;;4935867;29;20509;-65
2022/08/14 17:13:19;;;;;;;2.70;2.50;;;30.30;39.70;;;;;;4935316;29;20460;-63
2022/08/14 17:16:11;;;;;;;2.90;2.70;;;30.30;39.90;;;;;;4936057;29;20395;-63
2022/08/14 17:18:45;;;;;;;3.20;3.00;;;30.20;39.70;;;;;;4935830;29;20486;-64
2022/08/14 17:21:24;;;;;;;2.40;2.30;;;30.00;39.70;;;;;;4935934;29;20404;-65